Pays
Station

 

Conditions  météo  pour  Tetuan/Sania Ramel  -  Maroc    Maroc

  
10 °C
    
 
 

METAR pour Tetuan/Sania Ramel :

GMTN 202300Z AUTO 20006KT NCD 10/06 Q1012

 

Voici le bulletin pour Tetuan/Sania Ramel - Maroc.
 
Le bulletin a été fait il y a 7 minutes, à 23:00 UTC .
Le vent soufflait à la vitesse de 3.1 mètres par seconde de Sud/Sud-ouest (200°).
 
La température était de 10 °C, avec un point de rosée à 6 °C.
La pression atmosphérique était de 1012 hPa.
L'humidité relative était de 76.2%.
 

 
 
 

Pays :   A   B   C   D   E   F   G   H   I   J   K   L   M   N   O   P   Q   R   S   T   U   V   W   Y   Z

 

Partenaires :  Info Météo avec Met'info
Météo Marine avec MeteoMarine.net
Infos Site  |  Infos Légales  |  Crédits  |  Confidentialité
Contactez-nous  |  Ajouter aux favoris
© 2013-2018 METAR - Tous droits réservés